Time;durP1;ratioP1;P1;durP2;ratioP2;P2;SDS_P1;SDS_P2;PMS_P1;PMS_P2;Temp;Humidity;BMP_temperature;BMP_pressure;BME280_temperature;BME280_humidity;BME280_pressure;Samples;Min_cycle;Max_cycle;Signal;HPM_P1;HPM_P2
2022/09/19 00:01:35;;;;;;;1.65;1.12;;;;;;;9.34;100.00;98405.80;1718093;83;21095;-66
2022/09/19 00:04:05;;;;;;;1.57;0.98;;;;;;;9.34;100.00;98413.69;1718751;83;21029;-67
2022/09/19 00:06:39;;;;;;;1.00;0.80;;;;;;;9.38;100.00;98409.92;1718608;83;22365;-68
2022/09/19 00:09:04;;;;;;;1.10;1.00;;;;;;;9.37;100.00;98409.55;1717475;83;21727;-66
2022/09/19 00:11:33;;;;;;;1.10;0.80;;;;;;;9.38;100.00;98416.48;1718790;83;21014;-67
2022/09/19 00:14:00;;;;;;;1.25;0.80;;;;;;;9.40;100.00;98410.67;1718283;83;21050;-67
2022/09/19 00:16:32;;;;;;;2.62;1.00;;;;;;;9.41;100.00;98417.64;1718496;83;21076;-67
2022/09/19 00:19:04;;;;;;;3.08;0.93;;;;;;;9.43;100.00;98417.52;1718418;83;21605;-67
2022/09/19 00:21:35;;;;;;;1.07;0.98;;;;;;;9.42;100.00;98415.37;1718281;83;21613;-66
2022/09/19 00:26:48;;;;;;;0.80;0.80;;;;;;;9.44;100.00;98416.61;1718112;83;21077;-67
2022/09/19 00:29:16;;;;;;;2.70;0.70;;;;;;;9.43;100.00;98417.52;1718411;83;21039;-67
2022/09/19 00:31:44;;;;;;;1.85;0.70;;;;;;;9.43;100.00;98428.03;1717938;83;21277;-67
2022/09/19 00:34:12;;;;;;;1.52;0.70;;;;;;;9.42;100.00;98419.31;1718296;83;21048;-66
2022/09/19 00:36:39;;;;;;;0.85;0.80;;;;;;;9.47;100.00;98424.30;1718206;83;21077;-67
2022/09/19 00:39:07;;;;;;;1.50;0.80;;;;;;;9.50;100.00;98431.14;1718250;83;21210;-67
2022/09/19 00:41:36;;;;;;;0.70;0.70;;;;;;;9.49;100.00;98429.47;1718244;83;21060;-67
2022/09/19 00:44:27;;;;;;;1.20;0.88;;;;;;;9.50;100.00;98431.14;1718368;83;21645;-68
2022/09/19 00:47:02;;;;;;;0.60;0.60;;;;;;;9.53;100.00;98433.61;1718569;83;21107;-66
2022/09/19 00:49:31;;;;;;;1.62;0.80;;;;;;;9.49;100.00;98428.16;1718372;83;21116;-66
2022/09/19 00:52:03;;;;;;;0.80;0.80;;;;;;;9.50;100.00;98425.89;1718059;83;21066;-67
2022/09/19 00:54:33;;;;;;;0.98;0.80;;;;;;;9.51;100.00;98435.48;1718596;83;21501;-65
2022/09/19 00:57:01;;;;;;;0.78;0.78;;;;;;;9.50;100.00;98440.34;1718248;83;21793;-66
2022/09/19 00:59:31;;;;;;;0.90;0.85;;;;;;;9.52;100.00;98447.67;1727210;82;21129;-67
2022/09/19 01:01:57;;;;;;;1.15;0.80;;;;;;;9.53;100.00;98447.59;1747828;82;21065;-67
2022/09/19 01:04:29;;;;;;;1.37;0.88;;;;;;;9.55;100.00;98452.29;1748364;82;21065;-66
2022/09/19 01:07:03;;;;;;;2.33;0.78;;;;;;;9.55;100.00;98444.41;1748299;82;21061;-66
2022/09/19 01:09:39;;;;;;;1.37;0.88;;;;;;;9.55;100.00;98450.97;1748169;82;21055;-66
2022/09/19 01:12:26;;;;;;;0.62;0.60;;;;;;;9.56;100.00;98443.92;1748406;82;21002;-67
2022/09/19 01:15:14;;;;;;;1.05;0.68;;;;;;;9.57;100.00;98452.17;1748054;82;21022;-67
2022/09/19 01:17:48;;;;;;;0.60;0.60;;;;;;;9.57;100.00;98444.29;1732099;82;21081;-66
2022/09/19 01:20:55;;;;;;;0.80;0.80;;;;;;;9.58;100.00;98451.26;1720689;82;21057;-68
2022/09/19 01:23:53;;;;;;;0.68;0.68;;;;;;;9.60;100.00;98453.33;1748158;82;21249;-67
2022/09/19 01:27:05;;;;;;;1.32;0.78;;;;;;;9.56;100.00;98449.19;1748079;81;21053;-67
2022/09/19 01:29:43;;;;;;;1.12;0.90;;;;;;;9.55;100.00;98452.29;1748280;82;21096;-67
2022/09/19 01:32:14;;;;;;;1.32;1.00;;;;;;;9.57;100.00;98455.67;1716728;82;21104;-67
2022/09/19 01:34:46;;;;;;;1.95;1.10;;;;;;;9.60;100.00;98459.90;1739538;81;21193;-66
2022/09/19 01:37:28;;;;;;;0.88;0.80;;;;;;;9.59;100.00;98456.88;1734243;82;21234;-67
2022/09/19 01:39:56;;;;;;;1.25;1.10;;;;;;;9.61;100.00;98455.00;1734074;82;21034;-66
2022/09/19 01:42:23;;;;;;;0.88;0.88;;;;;;;9.61;100.00;98457.63;1734370;82;21046;-67
2022/09/19 01:44:52;;;;;;;1.60;1.02;;;;;;;9.64;100.00;98464.04;1734025;81;21055;-66
2022/09/19 01:47:47;;;;;;;2.58;1.12;;;;;;;9.65;100.00;98460.46;1734083;82;21011;-67
2022/09/19 01:50:23;;;;;;;1.02;0.93;;;;;;;9.68;100.00;98464.69;1734287;82;21596;-67
2022/09/19 01:53:20;;;;;;;1.82;1.30;;;;;;;9.68;100.00;98465.52;1733848;82;21606;-67
2022/09/19 01:56:11;;;;;;;1.10;1.00;;;;;;;9.70;100.00;98466.28;1705569;82;21058;-65
2022/09/19 01:58:56;;;;;;;1.30;1.20;;;;;;;9.72;100.00;98473.61;1733907;82;21019;-66
2022/09/19 02:01:50;;;;;;;1.60;1.20;;;;;;;9.74;100.00;98474.37;1721005;82;21062;-67
2022/09/19 02:04:30;;;;;;;4.62;1.47;;;;;;;9.75;100.00;98470.78;1734324;82;21164;-67
2022/09/19 02:07:12;;;;;;;1.80;1.22;;;;;;;9.77;100.00;98477.28;1733225;82;21042;-68
2022/09/19 02:10:07;;;;;;;2.00;1.22;;;;;;;9.79;100.00;98486.76;1734357;82;21019;-68
2022/09/19 02:12:39;;;;;;;3.35;1.20;;;;;;;9.80;100.00;98496.36;1738002;82;21162;-67
2022/09/19 02:15:09;;;;;;;2.27;1.45;;;;;;;9.78;100.00;98490.34;1713050;82;21018;-67
2022/09/19 02:17:44;;;;;;;2.80;1.45;;;;;;;9.80;100.00;98498.12;1734097;82;21749;-66
2022/09/19 02:20:19;;;;;;;1.42;1.30;;;;;;;9.84;100.00;98500.47;1713881;82;21110;-68
2022/09/19 02:22:49;;;;;;;7.30;1.77;;;;;;;9.84;100.00;98493.05;1733529;82;21038;-67
2022/09/19 02:25:20;;;;;;;2.17;1.30;;;;;;;9.84;100.00;98498.31;1713917;82;21054;-68
2022/09/19 02:27:52;;;;;;;1.70;1.30;;;;;;;9.82;100.00;98505.00;1713153;82;21097;-67
2022/09/19 02:30:20;;;;;;;1.65;1.15;;;;;;;9.82;100.00;98506.76;1713678;82;21064;-70
2022/09/19 02:32:49;;;;;;;1.52;1.25;;;;;;;9.80;100.00;98505.56;1733992;82;21034;-66
2022/09/19 02:35:23;;;;;;;1.12;1.02;;;;;;;9.78;100.00;98514.00;1736728;81;21034;-66
2022/09/19 02:37:59;;;;;;;2.00;1.30;;;;;;;9.76;100.00;98525.08;1742145;82;21755;-66
2022/09/19 02:40:35;;;;;;;1.20;1.10;;;;;;;9.75;100.00;98526.47;1713245;82;21065;-66
2022/09/19 02:43:14;;;;;;;1.07;0.98;;;;;;;9.74;100.00;98532.20;1742144;82;21240;-66
2022/09/19 02:45:44;;;;;;;1.80;0.95;;;;;;;9.72;100.00;98533.23;1742393;82;21063;-66
2022/09/19 02:48:31;;;;;;;1.20;1.10;;;;;;;9.71;100.00;98535.02;1741738;82;21582;-67
2022/09/19 02:51:27;;;;;;;1.37;1.15;;;;;;;9.72;100.00;98547.22;1741997;82;21034;-66
2022/09/19 02:53:59;;;;;;;0.93;0.80;;;;;;;9.74;100.00;98547.97;1742257;82;21499;-66
2022/09/19 02:56:33;;;;;;;1.10;1.00;;;;;;;9.75;100.00;98552.28;1689964;83;22462;-66
2022/09/19 02:59:03;;;;;;;0.90;0.90;;;;;;;9.74;100.00;98558.97;1711839;83;21084;-67
2022/09/19 03:01:34;;;;;;;1.20;0.90;;;;;;;9.74;100.00;98563.75;1730623;82;21193;-67
2022/09/19 03:04:12;;;;;;;1.72;1.10;;;;;;;9.75;100.00;98569.38;1742089;82;21281;-66
2022/09/19 03:07:00;;;;;;;;;;;;;;;9.76;100.00;98580.28;1737268;82;21066;-67
2022/09/19 03:09:29;;;;;;;2.33;1.05;;;;;;;9.77;100.00;98576.70;1742197;82;21079;-68
2022/09/19 03:12:35;;;;;;;4.42;1.25;;;;;;;9.73;100.00;98580.91;1742138;82;21085;-67
2022/09/19 03:15:05;;;;;;;1.15;1.05;;;;;;;9.75;100.00;98586.45;1712964;82;21092;-66
2022/09/19 03:17:45;;;;;;;1.20;1.05;;;;;;;9.74;100.00;98587.41;1712915;82;21049;-66
2022/09/19 03:20:13;;;;;;;2.45;1.20;;;;;;;9.73;100.00;98588.36;1709475;82;21029;-66
2022/09/19 03:22:42;;;;;;;1.25;0.90;;;;;;;9.74;100.00;98595.77;1742494;81;22632;-67
2022/09/19 03:25:14;;;;;;;1.42;1.20;;;;;;;9.75;100.00;98591.72;1742222;82;21022;-67
2022/09/19 03:27:42;;;;;;;3.35;1.62;;;;;;;9.73;100.00;98601.50;1742217;82;21034;-66
2022/09/19 03:30:12;;;;;;;3.05;1.50;;;;;;;9.74;100.00;98605.81;1742417;82;21138;-66
2022/09/19 03:32:41;;;;;;;2.70;1.72;;;;;;;9.77;100.00;98606.94;1742273;82;21046;-66
2022/09/19 03:35:10;;;;;;;2.22;1.60;;;;;;;9.78;100.00;98613.91;1741236;81;21246;-68
2022/09/19 03:37:36;;;;;;;4.40;2.00;;;;;;;9.82;100.00;98614.11;1713049;82;21053;-66
2022/09/19 03:40:04;;;;;;;2.37;1.95;;;;;;;9.83;100.00;98616.27;1734116;82;21046;-68
2022/09/19 03:44:46;;;;;;;3.10;2.37;;;;;;;9.83;100.00;98628.94;1881777;75;28004;-67
2022/09/19 03:47:15;;;;;;;2.83;2.00;;;;;;;9.75;100.00;98639.03;1858647;77;21031;-67
2022/09/19 03:49:43;;;;;;;5.78;2.58;;;;;;;9.77;100.00;98635.86;1858565;77;21168;-67
2022/09/19 03:52:09;;;;;;;4.80;2.65;;;;;;;9.79;100.00;98644.50;1858549;77;21071;-68
2022/09/19 03:54:38;;;;;;;3.50;2.42;;;;;;;9.81;100.00;98643.95;1863822;76;21059;-68
2022/09/19 03:57:05;;;;;;;3.20;2.58;;;;;;;9.82;100.00;98645.66;1879062;76;21442;-67
2022/09/19 03:59:33;;;;;;;3.77;2.90;;;;;;;9.86;100.00;98652.41;1879008;76;20893;-68
2022/09/19 04:02:00;;;;;;;3.98;2.60;;;;;;;9.87;100.00;98662.02;1879059;76;21517;-68
2022/09/19 04:04:27;;;;;;;4.10;2.72;;;;;;;9.92;100.00;98662.23;1878903;76;21636;-67
2022/09/19 04:06:55;;;;;;;3.60;3.20;;;;;;;9.97;100.00;98677.27;1879100;76;21025;-67
2022/09/19 04:09:22;;;;;;;4.42;2.92;;;;;;;9.99;100.00;98667.03;1878809;76;21169;-67
2022/09/19 04:11:52;;;;;;;3.62;3.20;;;;;;;10.01;100.00;98687.99;1864289;76;21041;-66
2022/09/19 04:14:20;;;;;;;5.08;2.90;;;;;;;10.02;100.00;98681.78;1858267;77;21734;-67
2022/09/19 04:16:48;;;;;;;7.60;3.30;;;;;;;10.03;100.00;98686.97;1857681;77;21053;-67
2022/09/19 04:19:15;;;;;;;4.80;3.12;;;;;;;10.07;100.00;98687.62;1856690;77;21018;-71
2022/09/19 04:21:54;;;;;;;5.00;3.02;;;;;;;10.10;100.00;98691.41;1749239;82;21060;-68
2022/09/19 04:24:31;;;;;;;3.40;3.10;;;;;;;10.11;100.00;98704.92;1854871;77;21067;-69
2022/09/19 04:27:08;;;;;;;4.55;3.27;;;;;;;10.14;100.00;98711.78;1852831;77;21121;-67
2022/09/19 04:29:35;;;;;;;4.15;3.02;;;;;;;10.17;100.00;98708.52;1856657;77;21018;-68
2022/09/19 04:32:02;;;;;;;4.47;3.12;;;;;;;10.20;100.00;98706.18;1856844;77;21023;-67
2022/09/19 04:34:30;;;;;;;5.50;3.25;;;;;;;10.21;100.00;98710.02;1856709;77;21034;-69
2022/09/19 04:37:06;;;;;;;3.58;3.22;;;;;;;10.20;100.00;98717.55;1856887;77;21021;-69
2022/09/19 04:39:25;;;;;;;6.15;3.65;;;;;;;10.19;100.00;98722.44;1854093;77;21946;-67
2022/09/19 04:41:52;;;;;;;4.80;3.62;;;;;;;10.19;100.00;98721.13;1856386;77;21475;-68
2022/09/19 04:44:28;;;;;;;6.60;3.45;;;;;;;10.24;100.00;98724.33;1858829;77;21073;-67
2022/09/19 04:46:53;;;;;;;4.00;3.60;;;;;;;10.26;100.00;98725.09;1859201;77;21014;-67
2022/09/19 04:49:20;;;;;;;5.80;3.70;;;;;;;10.28;100.00;98737.73;1859849;77;21076;-67
2022/09/19 04:51:47;;;;;;;6.30;3.67;;;;;;;10.29;100.00;98736.77;1833881;77;21154;-67
2022/09/19 04:54:14;;;;;;;8.75;3.27;;;;;;;10.27;100.00;98741.24;1860016;77;21108;-66
2022/09/19 04:56:44;;;;;;;4.97;3.58;;;;;;;10.28;100.00;98740.36;1859347;77;21030;-66
2022/09/19 04:59:11;;;;;;;4.45;3.35;;;;;;;10.32;100.00;98745.43;1859784;77;21026;-68
2022/09/19 05:01:39;;;;;;;4.37;3.40;;;;;;;10.33;100.00;98747.98;1859500;77;21077;-68
2022/09/19 05:04:05;;;;;;;6.40;3.50;;;;;;;10.36;100.00;98751.74;1859761;77;21181;-68
2022/09/19 05:06:33;;;;;;;4.28;3.12;;;;;;;10.41;100.00;98753.63;1859520;77;21077;-68
2022/09/19 05:09:01;;;;;;;4.35;3.30;;;;;;;10.44;100.00;98760.50;1859887;77;21050;-67
2022/09/19 05:11:30;;;;;;;5.83;3.70;;;;;;;10.48;100.00;98768.59;1859168;77;21023;-67
2022/09/19 05:14:00;;;;;;;6.10;3.47;;;;;;;10.52;100.00;98768.80;1859425;77;21519;-68
2022/09/19 05:16:29;;;;;;;5.08;3.27;;;;;;;10.55;100.00;98771.25;1859364;77;21081;-67
2022/09/19 05:19:00;;;;;;;4.37;3.58;;;;;;;10.58;100.00;98777.67;1857979;77;21479;-67
2022/09/19 05:21:27;;;;;;;4.15;3.47;;;;;;;10.62;100.00;98785.75;1859219;77;21077;-68
2022/09/19 05:23:54;;;;;;;6.25;3.55;;;;;;;10.63;100.00;98787.94;1859475;77;21555;-68
2022/09/19 05:26:22;;;;;;;6.65;3.65;;;;;;;10.66;100.00;98796.95;1833790;77;21046;-69
2022/09/19 05:28:51;;;;;;;6.30;4.05;;;;;;;10.69;100.00;98792.34;1859069;77;21345;-69
2022/09/19 05:31:19;;;;;;;5.70;3.85;;;;;;;10.70;100.00;98800.64;1859412;77;21014;-67
2022/09/19 05:33:56;;;;;;;5.20;3.20;;;;;;;10.68;100.00;98802.98;1857448;77;21066;-68
2022/09/19 05:36:27;;;;;;;3.80;3.08;;;;;;;10.70;100.00;98812.48;1859500;77;21073;-67
2022/09/19 05:39:14;;;;;;;3.65;3.25;;;;;;;10.68;100.00;98814.36;1858434;77;21573;-68
2022/09/19 05:42:01;;;;;;;5.65;3.40;;;;;;;10.63;100.00;98829.58;1857951;77;21096;-68
2022/09/19 05:44:31;;;;;;;4.85;3.45;;;;;;;10.61;100.00;98831.45;1859058;77;21086;-68
2022/09/19 05:47:02;;;;;;;4.85;3.15;;;;;;;10.62;100.00;98835.77;1858970;77;21034;-67
2022/09/19 05:49:30;;;;;;;5.45;3.70;;;;;;;10.63;100.00;98837.48;1858681;77;21039;-67
2022/09/19 05:53:51;;;;;;;5.83;3.92;;;;;;;10.66;100.00;98847.83;1858932;77;21070;-68
2022/09/19 05:54:26;;;;;;;6.17;4.00;;;;;;;10.68;100.00;98852.53;1849577;77;21084;-67
2022/09/19 05:57:10;;;;;;;4.70;3.45;;;;;;;10.66;100.00;98850.45;1823392;78;20997;-69
2022/09/19 05:59:37;;;;;;;4.20;3.40;;;;;;;10.68;100.00;98867.49;1825669;78;20979;-67
2022/09/19 06:02:10;;;;;;;4.80;3.35;;;;;;;10.65;100.00;98869.84;1825789;78;21056;-68
2022/09/19 06:04:37;;;;;;;5.55;3.35;;;;;;;10.64;100.00;98869.44;1850864;77;21010;-69
2022/09/19 06:07:05;;;;;;;4.22;3.35;;;;;;;10.68;100.00;98881.50;1859196;77;21538;-68
2022/09/19 06:09:32;;;;;;;6.15;3.98;;;;;;;10.69;100.00;98878.39;1859329;77;21019;-69
2022/09/19 06:12:01;;;;;;;7.08;3.70;;;;;;;10.70;100.00;98888.84;1858997;77;20963;-68
2022/09/19 06:14:30;;;;;;;5.97;3.45;;;;;;;10.71;100.00;98902.38;1859293;77;21073;-68
2022/09/19 06:16:57;;;;;;;6.53;3.75;;;;;;;10.77;100.00;98900.35;1859232;77;21530;-69
2022/09/19 06:19:24;;;;;;;5.25;3.95;;;;;;;10.79;100.00;98905.03;1859639;77;21798;-67
2022/09/19 06:21:57;;;;;;;4.58;3.50;;;;;;;10.79;100.00;98908.55;1858907;77;21030;-68
2022/09/19 06:24:25;;;;;;;7.62;4.37;;;;;;;10.81;100.00;98911.06;1859690;77;21034;-67
2022/09/19 06:26:59;;;;;;;5.47;4.03;;;;;;;10.86;100.00;98916.94;1859166;77;21038;-67
2022/09/19 06:29:26;;;;;;;5.85;4.50;;;;;;;10.95;100.00;98920.81;1857669;77;21030;-68
2022/09/19 06:32:07;;;;;;;7.47;4.28;;;;;;;10.98;100.00;98934.66;1856695;77;21141;-69
2022/09/19 06:34:36;;;;;;;5.15;3.90;;;;;;;11.02;100.00;98932.68;1858852;77;21038;-68
2022/09/19 06:37:02;;;;;;;4.85;4.25;;;;;;;11.06;100.00;98939.00;1859148;77;21046;-68
2022/09/19 06:39:32;;;;;;;5.37;4.28;;;;;;;11.07;100.00;98942.03;1859302;77;21061;-68
2022/09/19 06:42:04;;;;;;;4.33;3.70;;;;;;;11.12;100.00;98949.67;1833387;77;21101;-66
2022/09/19 06:44:32;;;;;;;5.90;3.80;;;;;;;11.16;100.00;98963.50;1853711;77;21141;-68
2022/09/19 06:47:02;;;;;;;5.92;4.30;;;;;;;11.15;100.00;98955.23;1855679;77;21038;-68
2022/09/19 06:49:30;;;;;;;4.20;3.80;;;;;;;11.17;100.00;98958.16;1855824;77;21058;-68
2022/09/19 06:52:06;;;;;;;7.50;4.10;;;;;;;11.24;100.00;98970.50;1853454;77;21105;-68
2022/09/19 06:54:34;;;;;;;6.00;3.92;;;;;;;11.30;100.00;98968.84;1855800;77;21030;-69
2022/09/19 06:57:00;;;;;;;6.87;3.90;;;;;;;11.37;100.00;98972.81;1855721;77;21257;-68
2022/09/19 06:59:27;;;;;;;6.50;4.12;;;;;;;11.46;100.00;98974.91;1855980;77;21069;-68
2022/09/19 07:01:54;;;;;;;5.55;3.72;;;;;;;11.53;100.00;98974.92;1855526;77;21705;-68
2022/09/19 07:04:21;;;;;;;5.08;3.60;;;;;;;11.55;100.00;98979.63;1855914;77;21567;-68
2022/09/19 07:06:58;;;;;;;4.08;3.67;;;;;;;11.58;100.00;98985.67;1853217;77;21022;-69
2022/09/19 07:09:26;;;;;;;4.35;3.65;;;;;;;11.65;100.00;98990.47;1825651;77;21861;-67
2022/09/19 07:11:56;;;;;;;5.20;3.02;;;;;;;11.79;100.00;98993.61;1855925;77;21030;-69
2022/09/19 07:14:23;;;;;;;5.47;3.10;;;;;;;12.16;100.00;98980.36;1856167;77;21027;-69
2022/09/19 07:16:50;;;;;;;4.25;3.00;;;;;;;12.97;100.00;98990.20;1855979;77;20990;-68
2022/09/19 07:19:17;;;;;;;3.45;2.85;;;;;;;13.73;100.00;98985.23;1856499;77;21078;-68
2022/09/19 07:22:05;;;;;;;3.25;2.55;;;;;;;14.52;100.00;98985.94;1815008;77;21896;-69
2022/09/19 07:24:37;;;;;;;2.92;2.42;;;;;;;15.34;100.00;98988.81;1851751;77;21089;-70
2022/09/19 07:27:05;;;;;;;4.67;2.75;;;;;;;15.62;96.33;98978.27;1854452;77;21039;-69
2022/09/19 07:29:34;;;;;;;4.00;2.27;;;;;;;15.59;94.69;98983.34;1856050;77;21046;-68
2022/09/19 07:32:01;;;;;;;4.03;2.17;;;;;;;15.40;96.51;98991.02;1856183;77;21038;-68
2022/09/19 07:34:28;;;;;;;6.47;2.42;;;;;;;15.16;96.87;98995.86;1856096;77;21836;-69
2022/09/19 07:36:55;;;;;;;4.03;2.47;;;;;;;14.90;98.40;98995.95;1855834;77;21623;-70
2022/09/19 07:39:22;;;;;;;4.53;2.52;;;;;;;14.75;99.12;98999.73;1856240;77;21158;-68
2022/09/19 07:41:54;;;;;;;2.42;2.20;;;;;;;14.82;100.00;99000.98;1852909;77;21034;-69
2022/09/19 07:44:29;;;;;;;4.87;2.72;;;;;;;15.00;98.58;99007.20;1857225;77;21073;-69
2022/09/19 07:50:07;;;;;;;3.72;2.27;;;;;;;14.87;98.66;99013.41;1858614;77;21030;-68
2022/09/19 07:52:40;;;;;;;2.62;2.27;;;;;;;15.12;98.56;99016.94;1859082;77;21058;-68
2022/09/19 07:55:10;;;;;;;3.70;2.25;;;;;;;15.45;97.32;99022.02;1859370;77;21070;-67
2022/09/19 07:57:38;;;;;;;2.50;2.20;;;;;;;15.86;93.20;99026.88;1859262;77;21022;-69
2022/09/19 08:00:10;;;;;;;3.55;1.95;;;;;;;16.22;90.17;99026.80;1859451;77;21342;-69
2022/09/19 08:02:39;;;;;;;5.15;2.40;;;;;;;16.51;88.80;99020.54;1856714;77;21058;-68
2022/09/19 08:05:08;;;;;;;2.30;1.92;;;;;;;16.69;87.07;99027.54;1859635;77;21000;-69
2022/09/19 08:07:38;;;;;;;5.25;1.98;;;;;;;16.69;84.86;99026.21;1859297;77;21574;-68
2022/09/19 08:10:08;;;;;;;5.90;2.05;;;;;;;16.84;86.93;99039.65;1859377;77;21077;-69
2022/09/19 08:12:35;;;;;;;1.77;1.67;;;;;;;17.04;85.22;99037.17;1859521;77;21073;-67
2022/09/19 08:15:07;;;;;;;3.10;1.82;;;;;;;16.98;84.79;99056.66;1859109;77;21017;-67
2022/09/19 08:17:36;;;;;;;3.22;2.10;;;;;;;16.59;84.92;99047.37;1859410;77;21265;-67
2022/09/19 08:20:03;;;;;;;2.65;2.10;;;;;;;16.06;86.90;99059.88;1833597;77;21086;-70
2022/09/19 08:22:33;;;;;;;3.33;2.15;;;;;;;15.62;88.52;99069.83;1833203;77;21603;-69
2022/09/19 08:25:05;;;;;;;3.75;2.35;;;;;;;15.14;92.16;99070.70;1858790;77;21203;-68
2022/09/19 08:27:32;;;;;;;4.67;2.40;;;;;;;14.76;93.79;99081.41;1859607;77;21034;-68
2022/09/19 08:29:59;;;;;;;3.60;2.22;;;;;;;14.50;95.76;99084.05;1859356;77;21527;-68
2022/09/19 08:32:28;;;;;;;4.28;2.50;;;;;;;14.21;97.70;99090.88;1858107;77;21050;-69
2022/09/19 08:34:55;;;;;;;3.30;2.50;;;;;;;13.98;99.29;99097.73;1859489;77;21038;-68
2022/09/19 08:37:22;;;;;;;4.75;2.77;;;;;;;13.79;94.48;99086.70;1859102;77;21180;-68
2022/09/19 08:43:03;;;;;;;4.87;2.90;;;;;;;13.62;96.69;99097.94;1859217;77;21027;-68
2022/09/19 08:46:12;;;;;;;3.75;2.52;;;;;;;13.49;96.33;99097.04;1857263;77;20996;-70
2022/09/19 08:48:54;;;;;;;3.67;2.92;;;;;;;13.37;97.66;99107.11;1856205;77;21030;-68
2022/09/19 08:51:54;;;;;;;3.75;3.22;;;;;;;13.26;97.87;99098.98;1856422;77;21146;-69
2022/09/19 08:54:30;;;;;;;5.35;3.02;;;;;;;13.17;98.91;99105.22;1851653;77;21003;-69
2022/09/19 08:57:00;;;;;;;5.47;2.70;;;;;;;13.18;99.02;99114.87;1822580;78;21554;-69
2022/09/19 08:59:36;;;;;;;4.85;3.40;;;;;;;13.32;99.11;99106.53;1822961;78;21037;-69
2022/09/19 09:02:29;;;;;;;6.28;3.10;;;;;;;13.43;98.81;99113.30;1822484;78;21781;-67
2022/09/19 09:05:01;;;;;;;5.85;3.40;;;;;;;13.74;97.43;99119.24;1822663;78;22245;-67
2022/09/19 09:07:52;;;;;;;4.62;2.83;;;;;;;14.25;91.98;99120.17;1822247;78;21180;-67
2022/09/19 09:11:08;;;;;;;6.22;3.05;;;;;;;14.55;90.85;99123.51;1820499;78;21048;-68
2022/09/19 09:14:02;;;;;;;3.87;2.67;;;;;;;14.82;88.21;99134.83;1822250;77;21095;-67
2022/09/19 09:16:48;;;;;;;5.62;3.20;;;;;;;14.87;87.16;99131.37;1792817;78;21501;-68
2022/09/19 09:19:35;;;;;;;5.55;3.12;;;;;;;14.92;86.26;99138.99;1822154;78;21387;-68
2022/09/19 09:22:22;;;;;;;5.10;3.00;;;;;;;14.93;87.10;99139.84;1821826;78;21080;-69
2022/09/19 09:25:13;;;;;;;6.00;2.95;;;;;;;14.98;86.88;99141.70;1821147;78;21636;-67
2022/09/19 09:28:06;;;;;;;4.40;2.75;;;;;;;15.03;85.45;99144.88;1821373;78;21026;-68
2022/09/19 09:30:48;;;;;;;5.05;3.08;;;;;;;15.01;86.24;99149.43;1776734;78;21534;-68
2022/09/19 09:33:31;;;;;;;4.42;2.83;;;;;;;14.76;85.38;99153.80;1822591;78;21287;-69
2022/09/19 09:36:06;;;;;;;5.83;3.80;;;;;;;14.52;85.97;99169.58;1821038;78;21057;-67
2022/09/19 09:38:52;;;;;;;9.03;3.22;;;;;;;14.39;87.09;99168.71;1822569;78;21064;-69
2022/09/19 09:41:47;;;;;;;4.60;2.90;;;;;;;14.25;87.89;99178.91;1822140;78;21021;-69
2022/09/19 09:44:33;;;;;;;3.95;2.85;;;;;;;14.19;89.31;99183.29;1822172;78;21065;-68
2022/09/19 09:47:44;;;;;;;4.45;3.30;;;;;;;14.14;88.19;99188.89;1804433;78;21145;-68
2022/09/19 09:50:28;;;;;;;9.20;3.62;;;;;;;14.09;88.68;99179.57;1822256;78;20993;-66
2022/09/19 09:53:34;;;;;;;5.45;2.90;;;;;;;14.16;88.68;99186.16;1822618;78;21091;-68
2022/09/19 09:56:15;;;;;;;8.60;3.02;;;;;;;14.28;89.30;99183.99;1812675;78;21121;-68
2022/09/19 09:59:05;;;;;;;6.67;3.37;;;;;;;14.30;86.25;99201.12;1817578;78;21044;-68
2022/09/19 10:04:51;;;;;;;5.90;3.65;;;;;;;14.23;85.95;99198.03;1856022;77;20190;-69
2022/09/19 10:07:45;;;;;;;7.12;3.60;;;;;;;14.21;86.49;99198.60;1825157;77;21031;-68
2022/09/19 10:10:18;;;;;;;7.45;3.50;;;;;;;14.23;86.21;99202.84;1856188;77;21038;-70
2022/09/19 10:12:58;;;;;;;5.72;3.05;;;;;;;14.43;85.74;99202.83;1855986;77;21033;-70
2022/09/19 10:15:26;;;;;;;7.37;3.47;;;;;;;14.63;85.98;99205.95;1856510;77;21550;-67
2022/09/19 10:18:05;;;;;;;7.40;3.30;;;;;;;14.89;85.19;99206.33;1855142;77;21006;-68
2022/09/19 10:20:34;;;;;;;6.80;3.33;;;;;;;14.99;83.19;99212.32;1855172;77;21550;-70
2022/09/19 10:23:01;;;;;;;4.87;2.80;;;;;;;15.08;83.53;99215.66;1856045;77;21038;-67
2022/09/19 10:25:30;;;;;;;6.37;3.12;;;;;;;15.13;82.42;99218.83;1856147;77;21058;-69
2022/09/19 10:28:04;;;;;;;5.50;3.10;;;;;;;15.37;80.81;99223.34;1855898;77;21214;-68
2022/09/19 10:30:41;;;;;;;6.90;3.10;;;;;;;15.58;81.20;99218.33;1825269;77;21414;-69
2022/09/19 10:33:38;;;;;;;4.28;2.67;;;;;;;15.86;78.01;99218.52;1854920;77;21543;-68
2022/09/19 10:36:08;;;;;;;4.28;2.52;;;;;;;15.87;77.08;99225.51;1856197;77;21022;-67
2022/09/19 10:38:58;;;;;;;4.78;2.85;;;;;;;15.89;74.60;99231.56;1855897;77;21555;-68
2022/09/19 10:41:25;;;;;;;4.78;2.30;;;;;;;15.87;73.77;99232.14;1856036;77;21061;-68
2022/09/19 10:43:57;;;;;;;7.40;2.47;;;;;;;15.93;74.01;99233.88;1855757;77;21003;-69
2022/09/19 10:46:35;;;;;;;5.33;2.47;;;;;;;16.20;74.26;99229.31;1857545;77;20984;-68
2022/09/19 10:49:05;;;;;;;9.60;3.30;;;;;;;16.58;73.27;99235.70;1778565;77;21007;-69
2022/09/19 10:51:38;;;;;;;8.33;3.00;;;;;;;16.99;71.75;99239.19;1830365;77;22044;-67
2022/09/19 10:54:13;;;;;;;5.15;2.37;;;;;;;17.53;70.49;99230.98;1858172;77;21213;-67
2022/09/19 10:56:40;;;;;;;5.00;2.40;;;;;;;17.95;66.71;99234.31;1822650;78;21028;-70
2022/09/19 10:59:18;;;;;;;5.12;2.40;;;;;;;18.39;65.29;99239.11;1800411;78;21138;-69
2022/09/19 11:02:19;;;;;;;5.08;2.42;;;;;;;18.81;63.33;99251.99;1824317;78;21502;-70
2022/09/19 11:05:03;;;;;;;5.17;2.20;;;;;;;19.13;61.83;99259.56;1817992;78;21532;-69
2022/09/19 11:07:35;;;;;;;4.53;2.30;;;;;;;19.03;61.32;99255.02;1825649;78;21077;-68
2022/09/19 11:10:28;;;;;;;3.47;2.02;;;;;;;19.12;61.99;99258.72;1824195;78;21056;-68
2022/09/19 11:13:16;;;;;;;3.85;2.20;;;;;;;19.24;55.25;99252.80;1800590;78;21033;-69
2022/09/19 11:16:17;;;;;;;5.60;2.02;;;;;;;19.40;51.26;99258.48;1825727;78;21111;-68
2022/09/19 11:19:12;;;;;;;4.62;2.30;;;;;;;18.83;52.94;99254.05;1825568;78;21032;-68
2022/09/19 11:22:05;;;;;;;3.87;2.12;;;;;;;18.65;53.89;99266.24;1825540;78;21033;-70
2022/09/19 11:24:43;;;;;;;4.03;2.00;;;;;;;18.72;54.78;99267.91;1824991;78;20989;-68
2022/09/19 11:27:25;;;;;;;6.53;2.47;;;;;;;18.91;52.00;99273.88;1825502;78;21122;-69
2022/09/19 11:30:21;;;;;;;5.05;2.20;;;;;;;19.00;52.92;99276.64;1825551;78;21084;-68
2022/09/19 11:33:24;;;;;;;5.30;2.17;;;;;;;18.93;51.46;99276.77;1825464;78;21047;-69
2022/09/19 11:36:31;;;;;;;5.95;2.60;;;;;;;18.54;52.81;99279.16;1807068;78;21779;-69
2022/09/19 11:39:32;;;;;;;6.67;2.50;;;;;;;18.41;54.49;99280.66;1782457;78;21048;-67
2022/09/19 11:42:07;;;;;;;4.22;2.45;;;;;;;18.08;53.88;99277.60;1811665;78;21050;-69
2022/09/19 11:44:59;;;;;;;5.00;2.33;;;;;;;17.65;55.30;99282.89;1824924;78;21493;-69
2022/09/19 11:47:56;;;;;;;4.57;2.40;;;;;;;17.37;56.16;99288.58;1793172;78;21072;-68
2022/09/19 11:50:48;;;;;;;5.47;2.42;;;;;;;17.22;56.67;99289.77;1822224;78;21096;-69
2022/09/19 11:53:32;;;;;;;6.42;2.22;;;;;;;17.08;56.54;99286.84;1818260;78;21591;-69
2022/09/19 11:56:26;;;;;;;4.90;2.35;;;;;;;16.67;55.92;99295.30;1820016;78;21020;-69
2022/09/19 11:59:04;;;;;;;4.40;2.30;;;;;;;16.38;56.84;99303.66;1822782;78;21029;-68
2022/09/19 12:01:56;;;;;;;5.05;2.42;;;;;;;16.15;57.83;99299.55;1822462;78;21479;-68
2022/09/19 12:04:53;;;;;;;3.65;2.20;;;;;;;15.92;59.94;99308.36;1822496;78;21145;-68
2022/09/19 12:07:47;;;;;;;9.53;2.98;;;;;;;15.78;60.06;99314.66;1822613;78;21153;-70
2022/09/19 12:10:21;;;;;;;3.90;2.58;;;;;;;15.63;60.88;99317.03;1822833;78;21496;-68
2022/09/19 12:12:59;;;;;;;5.62;2.25;;;;;;;15.52;60.79;99321.77;1822454;78;21021;-67
2022/09/19 12:15:34;;;;;;;8.15;2.55;;;;;;;15.43;61.67;99318.42;1821798;78;21005;-68
2022/09/19 12:18:25;;;;;;;8.80;2.67;;;;;;;15.38;62.80;99321.89;1822519;78;21113;-69
2022/09/19 12:20:56;;;;;;;9.88;2.75;;;;;;;15.34;62.56;99312.44;1822621;78;21189;-68
2022/09/19 12:26:44;;;;;;;5.78;2.42;;;;;;;15.12;62.54;99320.56;1822476;78;21025;-69
2022/09/19 12:29:57;;;;;;;5.70;2.55;;;;;;;15.01;61.98;99321.77;1815885;78;21087;-67